createdAt,value
2019-05-07T00:01:55.235Z,51.17
2019-05-07T00:04:24.231Z,53.40
2019-05-07T00:06:54.207Z,51.40
2019-05-07T00:09:23.890Z,50.17
2019-05-07T00:11:53.882Z,50.00
2019-05-07T00:14:25.769Z,49.03
2019-05-07T00:16:55.439Z,51.37
2019-05-07T00:19:25.156Z,50.30
2019-05-07T00:21:55.244Z,50.73
2019-05-07T00:24:24.935Z,50.53
2019-05-07T00:26:54.620Z,50.37
2019-05-07T00:29:24.216Z,49.03
2019-05-07T00:31:53.867Z,47.70
2019-05-07T00:34:25.196Z,52.00
2019-05-07T00:37:02.607Z,50.33
2019-05-07T00:39:42.299Z,52.43
2019-05-07T00:42:16.171Z,48.40
2019-05-07T00:44:50.590Z,48.13
2019-05-07T00:47:22.109Z,48.53
2019-05-07T00:49:52.278Z,47.83
2019-05-07T00:52:24.746Z,51.50
2019-05-07T00:54:55.558Z,49.60
2019-05-07T00:57:25.912Z,47.87
2019-05-07T00:59:55.630Z,48.20
2019-05-07T01:02:25.372Z,46.97
2019-05-07T01:04:55.043Z,48.10
2019-05-07T01:07:24.731Z,47.40
2019-05-07T01:09:54.397Z,48.20
2019-05-07T01:12:24.060Z,49.57
2019-05-07T01:14:55.104Z,47.30
2019-05-07T01:17:24.766Z,49.27
2019-05-07T01:19:54.421Z,48.73
2019-05-07T01:22:25.400Z,49.33
2019-05-07T01:24:57.607Z,46.40
2019-05-07T01:27:28.516Z,47.97
2019-05-07T01:29:58.323Z,48.10
2019-05-07T01:32:29.474Z,48.30
2019-05-07T01:35:02.450Z,47.43
2019-05-07T01:37:35.141Z,47.17
2019-05-07T01:40:05.341Z,46.43
2019-05-07T01:42:36.729Z,52.47
2019-05-07T01:45:09.478Z,48.67
2019-05-07T01:47:38.997Z,49.37
2019-05-07T01:50:09.058Z,47.00
2019-05-07T01:52:38.744Z,46.20
2019-05-07T01:55:10.104Z,47.83
2019-05-07T01:57:41.982Z,46.07
2019-05-07T02:00:13.057Z,50.93
2019-05-07T02:02:44.577Z,45.80
2019-05-07T02:05:16.401Z,45.70
2019-05-07T02:07:47.635Z,47.53
2019-05-07T02:10:35.296Z,47.47
2019-05-07T02:13:04.979Z,46.67
2019-05-07T02:15:34.684Z,50.23
2019-05-07T02:18:04.551Z,45.70
2019-05-07T02:20:38.946Z,46.73
2019-05-07T02:23:08.864Z,47.23
2019-05-07T02:25:38.530Z,46.80
2019-05-07T02:28:08.347Z,46.13
2019-05-07T02:30:38.078Z,45.37
2019-05-07T02:33:09.268Z,47.27
2019-05-07T02:35:39.026Z,45.73
2019-05-07T02:38:13.431Z,46.50
2019-05-07T02:40:53.416Z,45.83
2019-05-07T02:43:23.386Z,47.20
2019-05-07T02:46:15.980Z,45.53
2019-05-07T02:48:33.448Z,49.40
2019-05-07T02:51:04.951Z,46.17
2019-05-07T02:53:36.241Z,46.90
2019-05-07T02:56:07.075Z,46.43
2019-05-07T02:58:36.757Z,46.70
2019-05-07T03:01:07.760Z,46.77
2019-05-07T03:03:37.746Z,46.67
2019-05-07T03:06:07.397Z,46.50
2019-05-07T03:08:36.987Z,48.20
2019-05-07T03:11:07.966Z,49.57
2019-05-07T03:13:39.133Z,47.37
2019-05-07T03:16:09.574Z,47.53
2019-05-07T03:18:43.512Z,47.03
2019-05-07T03:21:16.860Z,49.50
2019-05-07T03:23:53.659Z,46.40
2019-05-07T03:26:24.788Z,47.70
2019-05-07T03:28:58.806Z,48.37
2019-05-07T03:31:36.048Z,47.10
2019-05-07T03:34:07.361Z,47.47
2019-05-07T03:36:39.229Z,47.37
2019-05-07T03:39:09.514Z,48.30
2019-05-07T03:41:43.074Z,46.93
2019-05-07T03:44:14.160Z,47.53
2019-05-07T03:46:54.560Z,47.57
2019-05-07T03:49:29.105Z,46.60
2019-05-07T03:51:59.156Z,48.13
2019-05-07T03:54:28.821Z,46.27
2019-05-07T03:57:07.432Z,46.53
2019-05-07T03:59:34.273Z,46.13
2019-05-07T04:02:03.463Z,48.27
2019-05-07T04:04:33.474Z,48.53
2019-05-07T04:07:03.781Z,47.50
2019-05-07T04:09:33.653Z,47.07
2019-05-07T04:12:04.981Z,48.43
2019-05-07T04:14:34.920Z,47.40
2019-05-07T04:17:16.687Z,48.73
2019-05-07T04:19:36.349Z,46.60
2019-05-07T04:22:06.020Z,46.77
2019-05-07T04:24:37.339Z,45.87
2019-05-07T04:27:25.132Z,47.13
2019-05-07T04:29:54.758Z,47.30
2019-05-07T04:32:26.069Z,46.23
2019-05-07T04:35:03.576Z,47.13
2019-05-07T04:37:33.145Z,45.83
2019-05-07T04:40:03.433Z,50.37
2019-05-07T04:42:33.601Z,48.20
2019-05-07T04:45:05.225Z,47.10
2019-05-07T04:47:42.897Z,49.67
2019-05-07T04:50:13.645Z,49.07
2019-05-07T04:52:43.660Z,48.67
2019-05-07T04:55:14.087Z,51.57
2019-05-07T04:57:44.105Z,49.20
2019-05-07T05:00:15.730Z,49.50
2019-05-07T05:02:52.679Z,48.70
2019-05-07T05:05:23.536Z,50.10
2019-05-07T05:07:53.652Z,49.73
2019-05-07T05:10:23.504Z,48.77
2019-05-07T05:12:53.853Z,49.87
2019-05-07T05:15:23.640Z,49.50
2019-05-07T05:17:54.278Z,49.40
2019-05-07T05:20:34.670Z,51.67
2019-05-07T05:23:23.935Z,49.10
2019-05-07T05:25:55.771Z,47.67
2019-05-07T05:28:26.096Z,49.40
2019-05-07T05:30:57.314Z,50.07
2019-05-07T05:33:26.998Z,47.40
2019-05-07T05:36:03.027Z,49.23
2019-05-07T05:38:33.229Z,49.20
2019-05-07T05:41:02.999Z,49.60
2019-05-07T05:43:34.279Z,50.60
2019-05-07T05:46:14.389Z,48.73
2019-05-07T05:48:44.348Z,47.97
2019-05-07T05:51:27.509Z,50.43
2019-05-07T05:53:58.833Z,49.70
2019-05-07T05:56:43.832Z,49.17
2019-05-07T05:59:46.577Z,50.53
2019-05-07T06:02:06.656Z,50.57
2019-05-07T06:04:42.041Z,51.63
2019-05-07T06:07:22.739Z,50.20
2019-05-07T06:09:54.202Z,49.80
2019-05-07T06:12:28.072Z,49.73
2019-05-07T06:15:06.354Z,50.00
2019-05-07T06:17:37.529Z,51.50
2019-05-07T06:20:22.773Z,50.27
2019-05-07T06:23:12.700Z,49.13
2019-05-07T06:25:43.267Z,51.43
2019-05-07T06:28:14.384Z,52.03
2019-05-07T06:30:44.136Z,51.87
2019-05-07T06:33:13.823Z,50.37
2019-05-07T06:35:43.477Z,50.30
2019-05-07T06:38:22.019Z,50.17
2019-05-07T06:41:12.068Z,52.63
2019-05-07T06:43:45.963Z,50.63
2019-05-07T06:46:15.652Z,52.63
2019-05-07T06:48:46.383Z,52.30
2019-05-07T06:51:17.643Z,55.50
2019-05-07T06:53:47.443Z,52.07
2019-05-07T06:56:18.840Z,51.77
2019-05-07T06:58:57.063Z,53.50
2019-05-07T07:01:28.377Z,57.30
2019-05-07T07:03:59.804Z,55.00
2019-05-07T07:06:35.107Z,51.20
2019-05-07T07:09:24.972Z,52.70
2019-05-07T07:12:14.337Z,54.37
2019-05-07T07:14:44.063Z,52.53
2019-05-07T07:17:13.747Z,53.07
2019-05-07T07:19:43.424Z,54.13
2019-05-07T07:22:13.179Z,52.93
2019-05-07T07:24:42.792Z,54.67
2019-05-07T07:27:13.145Z,53.23
2019-05-07T07:29:47.792Z,53.80
2019-05-07T07:32:19.125Z,54.43
2019-05-07T07:34:53.101Z,54.10
2019-05-07T07:37:23.633Z,56.23
2019-05-07T07:39:54.957Z,54.27
2019-05-07T07:42:25.494Z,53.27
2019-05-07T07:45:13.173Z,53.60
2019-05-07T07:47:42.819Z,54.93
2019-05-07T07:50:13.792Z,55.00
2019-05-07T07:53:02.776Z,54.57
2019-05-07T07:55:34.053Z,55.03
2019-05-07T07:58:12.443Z,56.70
2019-05-07T08:00:48.935Z,53.87
2019-05-07T08:03:18.620Z,53.13
2019-05-07T08:05:51.841Z,54.40
2019-05-07T08:08:22.010Z,55.90
2019-05-07T08:10:52.118Z,52.67
2019-05-07T08:13:22.902Z,53.10
2019-05-07T08:15:52.922Z,57.40
2019-05-07T08:18:22.645Z,54.00
2019-05-07T08:20:52.974Z,53.07
2019-05-07T08:23:22.758Z,54.17
2019-05-07T08:25:52.759Z,55.73
2019-05-07T08:28:23.495Z,53.53
2019-05-07T08:30:57.408Z,52.43
2019-05-07T08:33:34.800Z,54.07
2019-05-07T08:36:18.155Z,55.40
2019-05-07T08:38:53.212Z,54.33
2019-05-07T08:41:25.843Z,55.60
2019-05-07T08:44:09.187Z,54.60
2019-05-07T08:46:48.932Z,53.50
2019-05-07T08:49:33.432Z,53.50
2019-05-07T08:52:03.101Z,55.77
2019-05-07T08:54:32.974Z,55.60
2019-05-07T08:57:04.061Z,53.93
2019-05-07T08:59:35.096Z,55.13
2019-05-07T09:02:05.660Z,55.30
2019-05-07T09:04:35.318Z,56.17
2019-05-07T09:07:05.824Z,54.37
2019-05-07T09:09:35.481Z,55.03
2019-05-07T09:12:05.454Z,53.83
2019-05-07T09:14:36.777Z,54.43
2019-05-07T09:17:06.435Z,55.23
2019-05-07T09:19:47.333Z,54.80
2019-05-07T09:22:09.109Z,59.73
2019-05-07T09:24:38.786Z,56.17
2019-05-07T09:27:14.192Z,53.77
2019-05-07T09:29:56.638Z,56.53
2019-05-07T09:32:27.966Z,57.63
2019-05-07T09:35:04.300Z,55.73
2019-05-07T09:37:34.612Z,56.43
2019-05-07T09:40:06.374Z,55.57
2019-05-07T09:42:37.539Z,57.27
2019-05-07T09:45:09.337Z,58.00
2019-05-07T09:47:39.003Z,56.90
2019-05-07T09:50:09.269Z,57.10
2019-05-07T09:52:38.963Z,59.70
2019-05-07T09:55:14.883Z,61.50
2019-05-07T09:57:42.488Z,58.80
2019-05-07T10:00:13.999Z,59.43
2019-05-07T10:02:43.922Z,56.73
2019-05-07T10:05:13.885Z,59.03
2019-05-07T10:07:44.619Z,58.53
2019-05-07T10:10:14.794Z,61.27
2019-05-07T10:13:02.359Z,60.33
2019-05-07T10:15:34.626Z,58.07
2019-05-07T10:18:12.422Z,57.97
2019-05-07T10:20:44.741Z,60.50
2019-05-07T10:23:22.780Z,59.30
2019-05-07T10:25:55.102Z,60.07
2019-05-07T10:28:27.138Z,59.23
2019-05-07T10:30:56.893Z,59.77
2019-05-07T10:33:27.568Z,62.67
2019-05-07T10:35:58.232Z,59.13
2019-05-07T10:38:28.406Z,61.83
2019-05-07T10:40:58.064Z,58.60
2019-05-07T10:43:29.222Z,60.73
2019-05-07T10:46:02.376Z,61.77
2019-05-07T10:48:34.012Z,62.40
2019-05-07T10:51:05.877Z,61.57
2019-05-07T10:53:36.022Z,62.00
2019-05-07T10:56:07.366Z,60.97
2019-05-07T10:58:37.192Z,61.07
2019-05-07T11:01:32.761Z,60.17
2019-05-07T11:04:02.350Z,60.20
2019-05-07T11:06:32.456Z,59.67
2019-05-07T11:09:02.082Z,60.13
2019-05-07T11:11:31.976Z,59.87
2019-05-07T11:14:21.729Z,60.70
2019-05-07T11:16:59.738Z,59.37
2019-05-07T11:19:29.495Z,61.13
2019-05-07T11:21:59.851Z,60.90
2019-05-07T11:24:32.153Z,62.13
2019-05-07T11:27:02.456Z,61.83
2019-05-07T11:29:33.822Z,60.83
2019-05-07T11:32:03.922Z,60.83
2019-05-07T11:34:36.806Z,60.10
2019-05-07T11:37:07.163Z,61.13
2019-05-07T11:39:36.857Z,61.97
2019-05-07T11:42:12.701Z,61.70
2019-05-07T11:44:42.505Z,62.90
2019-05-07T11:47:22.649Z,61.83
2019-05-07T11:50:12.015Z,59.83
2019-05-07T11:52:52.399Z,63.87
2019-05-07T11:55:22.443Z,63.33
2019-05-07T11:57:55.856Z,62.03
2019-05-07T12:00:32.446Z,61.60
2019-05-07T12:03:03.952Z,62.03
2019-05-07T12:05:34.018Z,60.93
2019-05-07T12:08:04.219Z,62.20
2019-05-07T12:10:33.881Z,63.03
2019-05-07T12:13:03.588Z,60.73
2019-05-07T12:15:33.572Z,64.40
2019-05-07T12:18:03.734Z,62.07
2019-05-07T12:20:33.779Z,60.80
2019-05-07T12:23:03.544Z,61.97
2019-05-07T12:25:33.476Z,62.87
2019-05-07T12:28:06.829Z,62.30
2019-05-07T12:30:38.777Z,62.47
2019-05-07T12:33:13.066Z,61.50
2019-05-07T12:35:42.738Z,63.10
2019-05-07T12:38:12.853Z,61.80
2019-05-07T12:40:43.228Z,58.73
2019-05-07T12:43:12.860Z,61.07
2019-05-07T12:45:42.498Z,58.80
2019-05-07T12:48:14.226Z,59.37
2019-05-07T12:50:43.547Z,57.93
2019-05-07T12:53:14.892Z,58.13
2019-05-07T12:55:46.270Z,57.47
2019-05-07T12:58:15.934Z,59.87
2019-05-07T13:00:59.424Z,58.63
2019-05-07T13:03:51.935Z,59.60
2019-05-07T13:06:23.333Z,61.23
2019-05-07T13:09:14.548Z,59.13
2019-05-07T13:11:45.030Z,59.10
2019-05-07T13:14:21.788Z,60.10
2019-05-07T13:16:52.382Z,60.90
2019-05-07T13:19:26.729Z,62.00
2019-05-07T13:21:58.997Z,61.10
2019-05-07T13:24:32.126Z,61.40
2019-05-07T13:27:03.306Z,60.90
2019-05-07T13:29:33.646Z,60.53
2019-05-07T13:32:05.497Z,60.63
2019-05-07T13:34:35.664Z,59.43
2019-05-07T13:37:23.038Z,60.83
2019-05-07T13:39:55.250Z,61.40
2019-05-07T13:42:43.506Z,61.43
2019-05-07T13:45:13.024Z,61.00
2019-05-07T13:47:42.804Z,61.63
2019-05-07T13:50:18.289Z,60.87
2019-05-07T13:52:48.372Z,61.23
2019-05-07T13:55:18.067Z,64.60
2019-05-07T13:57:47.755Z,64.33
2019-05-07T14:00:21.850Z,63.80
2019-05-07T14:02:52.019Z,62.23
2019-05-07T14:05:23.105Z,62.47
2019-05-07T14:07:52.781Z,64.97
2019-05-07T14:10:22.625Z,62.73
2019-05-07T14:12:52.324Z,63.40
2019-05-07T14:15:23.150Z,65.37
2019-05-07T14:17:55.119Z,64.93
2019-05-07T14:20:25.015Z,63.67
2019-05-07T14:22:54.704Z,63.97
2019-05-07T14:25:24.554Z,62.53
2019-05-07T14:28:13.483Z,64.23
2019-05-07T14:30:43.267Z,64.53
2019-05-07T14:33:14.570Z,64.50
2019-05-07T14:35:52.067Z,61.60
2019-05-07T14:38:26.621Z,65.23
2019-05-07T14:40:56.655Z,63.10
2019-05-07T14:43:32.472Z,64.53
2019-05-07T14:46:03.715Z,64.87
2019-05-07T14:48:36.105Z,66.80
2019-05-07T14:51:05.152Z,65.57
2019-05-07T14:53:34.849Z,63.30
2019-05-07T14:56:06.583Z,63.80
2019-05-07T14:58:37.273Z,67.60
2019-05-07T15:01:07.313Z,65.43
2019-05-07T15:03:36.970Z,65.20
2019-05-07T15:06:07.148Z,63.33
2019-05-07T15:08:36.835Z,67.10
2019-05-07T15:11:08.132Z,66.30
2019-05-07T15:13:39.433Z,64.43
2019-05-07T15:16:09.109Z,66.03
2019-05-07T15:18:43.040Z,67.83
2019-05-07T15:21:14.574Z,66.57
2019-05-07T15:23:52.990Z,68.83
2019-05-07T15:26:24.781Z,68.00
2019-05-07T15:28:56.127Z,70.60
2019-05-07T15:31:36.459Z,70.83
2019-05-07T15:34:06.278Z,68.30
2019-05-07T15:36:36.600Z,71.57
2019-05-07T15:39:07.945Z,69.03
2019-05-07T15:41:37.624Z,68.17
2019-05-07T15:44:07.279Z,68.97
2019-05-07T15:46:37.136Z,67.80
2019-05-07T15:49:06.800Z,66.57
2019-05-07T15:51:36.460Z,68.53
2019-05-07T15:54:06.703Z,70.63
2019-05-07T15:56:36.368Z,68.47
2019-05-07T15:59:07.524Z,65.00
2019-05-07T16:01:38.850Z,67.10
2019-05-07T16:04:21.765Z,68.10
2019-05-07T16:06:42.599Z,66.70
2019-05-07T16:09:13.064Z,65.53
2019-05-07T16:11:43.202Z,63.67
2019-05-07T16:14:14.963Z,64.40
2019-05-07T16:16:46.586Z,64.77
2019-05-07T16:19:17.891Z,64.07
2019-05-07T16:21:47.574Z,64.77
2019-05-07T16:24:17.301Z,65.47
2019-05-07T16:26:47.100Z,63.87
2019-05-07T16:29:16.834Z,63.50
2019-05-07T16:31:48.902Z,62.33
2019-05-07T16:34:18.916Z,65.57
2019-05-07T16:36:49.013Z,64.53
2019-05-07T16:39:18.816Z,66.43
2019-05-07T16:41:52.631Z,62.03
2019-05-07T16:44:22.629Z,63.53
2019-05-07T16:46:53.472Z,63.93
2019-05-07T16:49:23.258Z,66.17
2019-05-07T16:51:52.767Z,62.43
2019-05-07T16:54:22.434Z,64.70
2019-05-07T16:57:12.043Z,66.43
2019-05-07T16:59:42.723Z,63.43
2019-05-07T17:02:14.130Z,66.37
2019-05-07T17:04:52.042Z,64.30
2019-05-07T17:07:22.077Z,68.07
2019-05-07T17:09:53.252Z,64.00
2019-05-07T17:12:23.032Z,66.80
2019-05-07T17:14:52.652Z,62.00
2019-05-07T17:17:22.498Z,63.40
2019-05-07T17:19:53.935Z,65.20
2019-05-07T17:22:23.811Z,66.03
2019-05-07T17:24:53.476Z,67.70
2019-05-07T17:27:23.158Z,64.13
2019-05-07T17:29:52.747Z,60.83
2019-05-07T17:32:22.917Z,63.00
2019-05-07T17:34:52.915Z,63.37
2019-05-07T17:37:22.947Z,61.80
2019-05-07T17:39:53.931Z,62.07
2019-05-07T17:42:23.627Z,66.10
2019-05-07T17:45:02.822Z,60.47
2019-05-07T17:47:32.246Z,62.63
2019-05-07T17:50:05.435Z,59.77
2019-05-07T17:52:35.236Z,64.03
2019-05-07T17:55:10.337Z,63.77
2019-05-07T17:57:38.802Z,60.73
2019-05-07T18:00:10.330Z,59.60
2019-05-07T18:02:58.226Z,62.30
2019-05-07T18:05:27.967Z,61.13
2019-05-07T18:07:57.617Z,59.40
2019-05-07T18:10:27.455Z,63.50
2019-05-07T18:12:57.119Z,61.17
2019-05-07T18:15:26.897Z,60.40
2019-05-07T18:18:15.667Z,61.33
2019-05-07T18:20:45.424Z,60.67
2019-05-07T18:23:17.079Z,67.40
2019-05-07T18:25:48.537Z,63.83
2019-05-07T18:28:18.605Z,62.43
2019-05-07T18:30:48.325Z,58.60
2019-05-07T18:33:22.096Z,58.97
2019-05-07T18:35:52.727Z,59.47
2019-05-07T18:38:22.647Z,59.80
2019-05-07T18:40:53.028Z,61.07
2019-05-07T18:43:22.778Z,60.63
2019-05-07T18:45:52.652Z,59.20
2019-05-07T18:48:29.569Z,61.60
2019-05-07T18:50:59.434Z,58.63
2019-05-07T18:53:29.103Z,60.07
2019-05-07T18:55:58.798Z,59.77
2019-05-07T18:58:28.567Z,61.20
2019-05-07T19:01:10.893Z,58.20
2019-05-07T19:03:42.027Z,57.27
2019-05-07T19:06:13.403Z,60.63
2019-05-07T19:08:43.387Z,61.10
2019-05-07T19:11:13.060Z,60.67
2019-05-07T19:13:42.710Z,60.33
2019-05-07T19:16:12.795Z,61.57
2019-05-07T19:18:43.244Z,57.40
2019-05-07T19:21:16.792Z,57.50
2019-05-07T19:23:46.457Z,57.00
2019-05-07T19:26:16.137Z,59.10
2019-05-07T19:28:45.891Z,59.77
2019-05-07T19:31:15.614Z,56.53
2019-05-07T19:33:45.520Z,57.83
2019-05-07T19:36:15.782Z,57.40
2019-05-07T19:38:45.431Z,56.83
2019-05-07T19:41:15.094Z,58.97
2019-05-07T19:43:44.791Z,57.53
2019-05-07T19:46:14.483Z,57.73
2019-05-07T19:48:45.201Z,56.97
2019-05-07T19:51:14.920Z,57.07
2019-05-07T19:53:44.588Z,58.10
2019-05-07T19:56:21.943Z,58.90
2019-05-07T19:58:52.618Z,57.67
2019-05-07T20:01:24.516Z,58.70
2019-05-07T20:03:54.200Z,58.23
2019-05-07T20:06:25.366Z,57.13
2019-05-07T20:09:08.123Z,60.27
2019-05-07T20:11:46.032Z,60.13
2019-05-07T20:14:15.863Z,58.43
2019-05-07T20:16:45.586Z,56.97
2019-05-07T20:19:15.320Z,57.23
2019-05-07T20:21:45.167Z,57.80
2019-05-07T20:24:14.860Z,59.37
2019-05-07T20:26:46.421Z,55.77
2019-05-07T20:29:16.098Z,56.57
2019-05-07T20:31:50.296Z,56.60
2019-05-07T20:34:22.021Z,56.93
2019-05-07T20:36:56.746Z,58.37
2019-05-07T20:39:26.544Z,57.40
2019-05-07T20:41:56.208Z,59.40
2019-05-07T20:44:26.109Z,56.37
2019-05-07T20:46:55.794Z,57.40
2019-05-07T20:49:27.361Z,56.40
2019-05-07T20:51:57.043Z,56.73
2019-05-07T20:54:42.059Z,59.90
2019-05-07T20:57:13.383Z,56.33
2019-05-07T20:59:44.531Z,56.87
2019-05-07T21:02:14.219Z,60.03
2019-05-07T21:04:43.945Z,56.97
2019-05-07T21:07:13.614Z,58.13
2019-05-07T21:09:43.329Z,57.27
2019-05-07T21:12:14.007Z,59.77
2019-05-07T21:14:43.757Z,59.53
2019-05-07T21:17:13.976Z,55.77
2019-05-07T21:19:47.110Z,54.60
2019-05-07T21:22:16.837Z,55.60
2019-05-07T21:24:47.014Z,55.93
2019-05-07T21:27:16.843Z,57.77
2019-05-07T21:29:46.494Z,56.90
2019-05-07T21:32:16.192Z,56.23
2019-05-07T21:34:45.846Z,57.07
2019-05-07T21:37:17.164Z,56.10
2019-05-07T21:39:46.795Z,58.37
2019-05-07T21:42:16.504Z,55.33
2019-05-07T21:44:46.191Z,56.37
2019-05-07T21:47:15.879Z,59.03
2019-05-07T21:49:45.526Z,58.23
2019-05-07T21:52:15.254Z,55.07
2019-05-07T21:54:58.375Z,57.93
2019-05-07T21:57:41.708Z,56.07
2019-05-07T22:00:15.029Z,55.90
2019-05-07T22:02:44.685Z,57.33
2019-05-07T22:05:15.457Z,57.20
2019-05-07T22:07:45.150Z,58.03
2019-05-07T22:10:15.085Z,56.67
2019-05-07T22:12:44.742Z,57.03
2019-05-07T22:15:14.717Z,56.87
2019-05-07T22:17:44.523Z,56.13
2019-05-07T22:20:14.173Z,56.23
2019-05-07T22:22:43.859Z,56.17
2019-05-07T22:25:13.554Z,55.93
2019-05-07T22:27:43.236Z,57.67
2019-05-07T22:30:23.079Z,54.53
2019-05-07T22:33:02.460Z,57.87
2019-05-07T22:35:33.982Z,57.83
2019-05-07T22:38:03.927Z,57.20
2019-05-07T22:40:33.628Z,55.13
2019-05-07T22:43:03.306Z,55.73
2019-05-07T22:45:33.041Z,54.00
2019-05-07T22:48:02.936Z,57.73
2019-05-07T22:50:33.245Z,56.20
2019-05-07T22:53:03.250Z,54.90
2019-05-07T22:55:32.868Z,54.43
2019-05-07T22:58:23.126Z,53.90
2019-05-07T23:00:55.136Z,55.70
2019-05-07T23:03:24.818Z,53.77
2019-05-07T23:05:56.161Z,55.60
2019-05-07T23:08:27.464Z,54.10
2019-05-07T23:10:57.198Z,52.97
2019-05-07T23:13:27.108Z,55.80
2019-05-07T23:15:56.887Z,56.73
2019-05-07T23:18:31.767Z,55.80
2019-05-07T23:21:01.116Z,54.23
2019-05-07T23:23:32.568Z,53.27
2019-05-07T23:26:02.973Z,55.90
2019-05-07T23:28:32.974Z,54.30
2019-05-07T23:31:02.659Z,55.17
2019-05-07T23:33:32.394Z,52.97
2019-05-07T23:36:02.336Z,54.27
2019-05-07T23:38:33.652Z,55.80
2019-05-07T23:41:04.951Z,53.73
2019-05-07T23:43:34.698Z,53.80
2019-05-07T23:46:04.373Z,55.27
2019-05-07T23:48:34.047Z,53.97
2019-05-07T23:51:22.808Z,55.93
2019-05-07T23:53:52.464Z,53.20
2019-05-07T23:56:23.881Z,52.90
2019-05-07T23:58:55.107Z,55.33
